createdAt,value
2022-12-12T00:00:05.199Z,32.90
2022-12-12T00:01:05.352Z,32.30
2022-12-12T00:02:05.536Z,31.40
2022-12-12T00:03:05.765Z,31.90
2022-12-12T00:04:05.840Z,30.50
2022-12-12T00:05:06.004Z,30.40
2022-12-12T00:06:06.189Z,30.50
2022-12-12T00:07:06.361Z,29.80
2022-12-12T00:08:06.587Z,31.30
2022-12-12T00:09:06.738Z,29.80
2022-12-12T00:10:06.912Z,29.90
2022-12-12T00:11:07.083Z,30.70
2022-12-12T00:12:07.269Z,30.40
2022-12-12T00:13:07.434Z,29.00
2022-12-12T00:14:07.618Z,29.80
2022-12-12T00:15:07.787Z,29.40
2022-12-12T00:16:08.025Z,29.30
2022-12-12T00:17:08.098Z,29.50
2022-12-12T00:18:08.308Z,28.50
2022-12-12T00:19:08.489Z,29.40
2022-12-12T00:20:08.668Z,28.90
2022-12-12T00:21:08.828Z,28.40
2022-12-12T00:22:09.004Z,28.80
2022-12-12T00:23:09.176Z,29.80
2022-12-12T00:24:09.355Z,28.50
2022-12-12T00:25:09.719Z,29.00
2022-12-12T00:26:09.665Z,29.50
2022-12-12T00:27:09.845Z,29.40
2022-12-12T00:28:10.027Z,29.20
2022-12-12T00:29:10.192Z,28.80
2022-12-12T00:30:10.397Z,29.10
2022-12-12T00:31:10.626Z,28.80
2022-12-12T00:32:10.732Z,29.10
2022-12-12T00:33:10.910Z,29.80
2022-12-12T00:34:11.097Z,30.20
2022-12-12T00:35:11.592Z,28.70
2022-12-12T00:36:11.451Z,28.00
2022-12-12T00:37:11.621Z,28.20
2022-12-12T00:38:11.802Z,28.60
2022-12-12T00:39:18.025Z,29.60
2022-12-12T00:40:13.090Z,27.80
2022-12-12T00:41:12.243Z,28.30
2022-12-12T00:42:12.426Z,28.80
2022-12-12T00:43:12.599Z,28.30
2022-12-12T00:44:12.777Z,28.60
2022-12-12T00:45:13.088Z,28.90
2022-12-12T00:46:13.204Z,28.50
2022-12-12T00:47:13.231Z,27.10
2022-12-12T00:48:13.415Z,29.00
2022-12-12T00:49:13.584Z,28.60
2022-12-12T00:50:13.775Z,28.70
2022-12-12T00:51:13.951Z,29.50
2022-12-12T00:52:14.137Z,29.50
2022-12-12T00:53:14.327Z,29.00
2022-12-12T00:54:14.522Z,28.80
2022-12-12T00:55:14.982Z,29.70
2022-12-12T00:56:14.923Z,29.50
2022-12-12T00:57:15.114Z,28.60
2022-12-12T00:58:15.306Z,28.70
2022-12-12T00:59:15.485Z,28.90
2022-12-12T01:00:15.670Z,28.90
2022-12-12T01:01:15.878Z,29.80
2022-12-12T01:02:16.051Z,28.80
2022-12-12T01:03:16.285Z,29.10
2022-12-12T01:04:16.354Z,28.90
2022-12-12T01:05:16.530Z,29.50
2022-12-12T01:06:16.718Z,30.20
2022-12-12T01:07:16.902Z,29.50
2022-12-12T01:08:17.128Z,30.50
2022-12-12T01:09:17.199Z,29.40
2022-12-12T01:10:17.387Z,29.60
2022-12-12T01:11:17.555Z,30.20
2022-12-12T01:12:17.732Z,28.60
2022-12-12T01:13:17.921Z,30.40
2022-12-12T01:14:18.110Z,30.10
2022-12-12T01:15:18.277Z,30.00
2022-12-12T01:16:18.526Z,29.70
2022-12-12T01:17:18.585Z,29.80
2022-12-12T01:18:18.776Z,30.10
2022-12-12T01:19:18.998Z,29.50
2022-12-12T01:20:19.071Z,30.00
2022-12-12T01:21:19.233Z,29.70
2022-12-12T01:22:19.416Z,30.30
2022-12-12T01:23:19.589Z,29.10
2022-12-12T01:24:19.757Z,30.30
2022-12-12T01:25:19.933Z,30.20
2022-12-12T01:26:20.115Z,29.40
2022-12-12T01:27:20.281Z,29.10
2022-12-12T01:28:20.460Z,29.80
2022-12-12T01:29:20.621Z,29.60
2022-12-12T01:30:20.801Z,29.50
2022-12-12T01:31:21.066Z,30.40
2022-12-12T01:32:21.181Z,29.90
2022-12-12T01:33:21.360Z,30.20
2022-12-12T01:34:21.539Z,29.60
2022-12-12T01:35:21.709Z,30.00
2022-12-12T01:36:21.893Z,29.30
2022-12-12T01:37:22.058Z,30.20
2022-12-12T01:38:22.249Z,30.40
2022-12-12T01:39:22.417Z,30.00
2022-12-12T01:40:22.612Z,30.50
2022-12-12T01:41:22.786Z,31.10
2022-12-12T01:42:22.964Z,30.40
2022-12-12T01:43:23.137Z,30.20
2022-12-12T01:44:23.316Z,29.60
2022-12-12T01:45:23.486Z,29.80
2022-12-12T01:46:23.703Z,30.00
2022-12-12T01:47:23.769Z,30.70
2022-12-12T01:48:23.950Z,30.70
2022-12-12T01:49:24.128Z,30.60
2022-12-12T01:50:24.308Z,31.20
2022-12-12T01:51:24.483Z,30.80
2022-12-12T01:52:24.666Z,30.30
2022-12-12T01:53:24.832Z,29.50
2022-12-12T01:54:25.002Z,30.60
2022-12-12T01:55:25.188Z,29.70
2022-12-12T01:56:25.374Z,30.00
2022-12-12T01:57:25.556Z,30.40
2022-12-12T01:58:25.749Z,31.00
2022-12-12T01:59:25.953Z,30.70
2022-12-12T02:00:26.177Z,31.00
2022-12-12T02:01:26.238Z,30.50
2022-12-12T02:02:26.462Z,30.90
2022-12-12T02:03:26.631Z,30.40
2022-12-12T02:04:26.828Z,31.30
2022-12-12T02:05:27.007Z,30.80
2022-12-12T02:06:27.185Z,32.10
2022-12-12T02:07:27.388Z,30.90
2022-12-12T02:08:27.611Z,30.80
2022-12-12T02:09:27.762Z,30.50
2022-12-12T02:10:27.926Z,31.10
2022-12-12T02:11:28.085Z,30.10
2022-12-12T02:12:28.285Z,30.60
2022-12-12T02:13:28.434Z,30.00
2022-12-12T02:14:28.615Z,29.30
2022-12-12T02:15:28.778Z,29.60
2022-12-12T02:16:29.002Z,29.70
2022-12-12T02:17:29.043Z,30.70
2022-12-12T02:18:29.234Z,29.60
2022-12-12T02:19:29.392Z,29.10
2022-12-12T02:20:29.575Z,29.00
2022-12-12T02:21:29.743Z,28.90
2022-12-12T02:22:29.921Z,29.70
2022-12-12T02:23:30.083Z,29.10
2022-12-12T02:24:30.260Z,28.70
2022-12-12T02:25:30.420Z,29.20
2022-12-12T02:26:30.600Z,28.90
2022-12-12T02:27:30.776Z,28.10
2022-12-12T02:28:30.943Z,28.90
2022-12-12T02:29:31.099Z,28.30
2022-12-12T02:30:31.277Z,27.40
2022-12-12T02:31:31.571Z,28.10
2022-12-12T02:32:31.624Z,28.80
2022-12-12T02:33:31.787Z,28.30
2022-12-12T02:34:31.958Z,29.20
2022-12-12T02:35:32.116Z,28.10
2022-12-12T02:36:32.291Z,29.00
2022-12-12T02:37:32.477Z,28.30
2022-12-12T02:38:32.637Z,28.80
2022-12-12T02:39:32.811Z,28.00
2022-12-12T02:40:32.970Z,29.00
2022-12-12T02:41:33.144Z,29.40
2022-12-12T02:42:33.298Z,28.50
2022-12-12T02:43:33.465Z,28.10
2022-12-12T02:44:33.620Z,29.00
2022-12-12T02:45:33.785Z,28.30
2022-12-12T02:46:34.054Z,29.80
2022-12-12T02:47:34.133Z,28.90
2022-12-12T02:48:34.291Z,28.90
2022-12-12T02:49:34.452Z,29.40
2022-12-12T02:50:34.615Z,29.40
2022-12-12T02:51:34.775Z,28.70
2022-12-12T02:52:34.950Z,29.00
2022-12-12T02:53:35.121Z,27.70
2022-12-12T02:54:35.280Z,29.20
2022-12-12T02:55:36.676Z,28.60
2022-12-12T02:56:35.580Z,29.20
2022-12-12T02:57:35.773Z,28.60
2022-12-12T02:58:35.933Z,28.80
2022-12-12T02:59:36.103Z,28.50
2022-12-12T03:00:36.310Z,28.80
2022-12-12T03:01:36.492Z,28.00
2022-12-12T03:02:36.666Z,27.80
2022-12-12T03:03:36.835Z,28.50
2022-12-12T03:04:37.000Z,27.50
2022-12-12T03:05:37.165Z,28.00
2022-12-12T03:06:40.936Z,27.70
2022-12-12T03:07:37.454Z,28.40
2022-12-12T03:08:37.610Z,28.90
2022-12-12T03:09:37.785Z,27.20
2022-12-12T03:10:37.938Z,27.30
2022-12-12T03:11:38.119Z,27.60
2022-12-12T03:12:38.283Z,27.40
2022-12-12T03:13:38.451Z,27.20
2022-12-12T03:14:38.604Z,27.20
2022-12-12T03:15:38.773Z,27.40
2022-12-12T03:16:38.975Z,26.80
2022-12-12T03:17:39.155Z,27.70
2022-12-12T03:18:39.319Z,27.10
2022-12-12T03:19:39.478Z,26.60
2022-12-12T03:20:39.636Z,26.30
2022-12-12T03:21:39.800Z,26.20
2022-12-12T03:22:40.920Z,26.40
2022-12-12T03:23:40.087Z,25.90
2022-12-12T03:24:40.252Z,25.40
2022-12-12T03:25:40.411Z,25.00
2022-12-12T03:26:40.570Z,24.10
2022-12-12T03:27:40.743Z,24.40
2022-12-12T03:28:40.903Z,25.10
2022-12-12T03:29:41.078Z,25.40
2022-12-12T03:30:41.236Z,25.40
2022-12-12T03:31:41.472Z,24.00
2022-12-12T03:32:41.546Z,24.30
2022-12-12T03:33:41.701Z,23.80
2022-12-12T03:34:41.853Z,24.50
2022-12-12T03:35:42.010Z,24.20
2022-12-12T03:36:42.173Z,24.30
2022-12-12T03:37:42.358Z,24.70
2022-12-12T03:38:42.513Z,25.00
2022-12-12T03:39:42.686Z,25.00
2022-12-12T03:40:42.827Z,24.70
2022-12-12T03:41:42.991Z,25.40
2022-12-12T03:42:43.165Z,25.90
2022-12-12T03:43:43.332Z,24.70
2022-12-12T03:44:43.483Z,24.70
2022-12-12T03:45:43.671Z,26.00
2022-12-12T03:46:43.803Z,26.60
2022-12-12T03:47:43.990Z,26.10
2022-12-12T03:48:44.155Z,26.30
2022-12-12T03:49:44.324Z,26.30
2022-12-12T03:50:44.476Z,25.70
2022-12-12T03:51:44.650Z,27.20
2022-12-12T03:52:44.824Z,26.10
2022-12-12T03:53:44.987Z,26.20
2022-12-12T03:54:45.143Z,26.80
2022-12-12T03:55:45.307Z,27.20
2022-12-12T03:56:45.472Z,26.30
2022-12-12T03:57:45.664Z,25.60
2022-12-12T03:58:45.829Z,26.50
2022-12-12T03:59:46.001Z,26.50
2022-12-12T04:00:46.185Z,26.70
2022-12-12T04:01:46.335Z,27.00
2022-12-12T04:02:46.504Z,26.20
2022-12-12T04:03:53.699Z,27.00
2022-12-12T04:04:46.809Z,27.10
2022-12-12T04:05:46.983Z,26.70
2022-12-12T04:06:47.149Z,26.30
2022-12-12T04:07:47.363Z,26.40
2022-12-12T04:08:47.496Z,27.00
2022-12-12T04:09:47.690Z,26.20
2022-12-12T04:10:47.827Z,25.70
2022-12-12T04:11:47.995Z,26.90
2022-12-12T04:12:48.170Z,25.70
2022-12-12T04:13:48.386Z,25.60
2022-12-12T04:14:48.546Z,25.40
2022-12-12T04:15:48.733Z,26.50
2022-12-12T04:16:48.926Z,25.90
2022-12-12T04:17:49.076Z,26.80
2022-12-12T04:18:49.242Z,25.20
2022-12-12T04:19:49.458Z,26.00
2022-12-12T04:20:49.588Z,26.20
2022-12-12T04:21:49.769Z,25.10
2022-12-12T04:22:49.943Z,25.90
2022-12-12T04:23:50.167Z,24.00
2022-12-12T04:24:50.192Z,25.10
2022-12-12T04:25:50.351Z,24.70
2022-12-12T04:26:50.505Z,23.90
2022-12-12T04:27:50.688Z,24.20
2022-12-12T04:28:50.841Z,24.20
2022-12-12T04:29:51.009Z,24.10
2022-12-12T04:30:51.223Z,23.40
2022-12-12T04:31:51.362Z,23.30
2022-12-12T04:32:51.380Z,23.10
2022-12-12T04:33:51.700Z,22.80
2022-12-12T04:34:51.638Z,23.30
2022-12-12T04:35:51.822Z,22.80
2022-12-12T04:36:51.979Z,23.00
2022-12-12T04:37:52.167Z,22.50
2022-12-12T04:38:52.325Z,22.10
2022-12-12T04:39:52.718Z,22.00
2022-12-12T04:40:52.625Z,22.10
2022-12-12T04:41:52.803Z,21.70
2022-12-12T04:42:52.972Z,21.20
2022-12-12T04:43:53.143Z,21.00
2022-12-12T04:44:53.295Z,20.40
2022-12-12T04:45:53.563Z,21.00
2022-12-12T04:46:53.593Z,19.80
2022-12-12T04:47:53.827Z,20.00
2022-12-12T04:48:54.006Z,19.30
2022-12-12T04:49:54.062Z,19.40
2022-12-12T04:50:54.235Z,20.10
2022-12-12T04:51:54.409Z,20.10
2022-12-12T04:52:54.563Z,19.60
2022-12-12T04:53:54.734Z,19.80
2022-12-12T04:54:54.904Z,20.20
2022-12-12T04:55:55.068Z,19.60
2022-12-12T04:56:55.232Z,19.20
2022-12-12T04:57:55.441Z,19.60
2022-12-12T04:58:55.492Z,19.90
2022-12-12T04:59:55.674Z,19.80
2022-12-12T05:00:55.883Z,18.80
2022-12-12T05:01:56.029Z,19.30
2022-12-12T05:02:56.198Z,19.60
2022-12-12T05:03:56.374Z,19.00
2022-12-12T05:04:56.532Z,18.20
2022-12-12T05:05:56.727Z,18.50
2022-12-12T05:06:56.889Z,18.10
2022-12-12T05:07:57.137Z,18.00
2022-12-12T05:08:57.151Z,18.40
2022-12-12T05:09:57.337Z,17.60
2022-12-12T05:10:57.485Z,17.80
2022-12-12T05:11:57.650Z,17.90
2022-12-12T05:12:57.814Z,18.70
2022-12-12T05:13:57.974Z,18.30
2022-12-12T05:14:58.124Z,17.70
2022-12-12T05:15:58.332Z,17.90
2022-12-12T05:16:58.441Z,17.00
2022-12-12T05:17:58.487Z,17.10
2022-12-12T05:18:58.648Z,17.80
2022-12-12T05:19:58.813Z,17.60
2022-12-12T05:20:58.967Z,16.40
2022-12-12T05:21:59.125Z,16.80
2022-12-12T05:22:59.300Z,17.30
2022-12-12T05:23:59.509Z,17.80
2022-12-12T05:24:59.594Z,16.60
2022-12-12T05:25:59.771Z,16.50
2022-12-12T05:26:59.938Z,16.40
2022-12-12T05:28:00.109Z,16.40
2022-12-12T05:29:06.744Z,16.40
2022-12-12T05:30:01.732Z,15.90
2022-12-12T05:31:00.711Z,16.00
2022-12-12T05:32:00.898Z,16.20
2022-12-12T05:33:01.048Z,16.30
2022-12-12T05:34:02.124Z,16.10
2022-12-12T05:35:01.390Z,15.30
2022-12-12T05:36:01.573Z,14.90
2022-12-12T05:37:02.163Z,14.50
2022-12-12T05:38:01.851Z,15.30
2022-12-12T05:39:02.013Z,14.90
2022-12-12T05:40:02.171Z,13.80
2022-12-12T05:41:02.355Z,14.10
2022-12-12T05:42:02.524Z,13.50
2022-12-12T05:43:02.710Z,13.10
2022-12-12T05:44:02.890Z,12.40
2022-12-12T05:45:03.042Z,12.50
2022-12-12T05:46:03.255Z,12.40
2022-12-12T05:47:03.436Z,11.80
2022-12-12T05:48:03.612Z,11.70
2022-12-12T05:49:03.767Z,11.70
2022-12-12T05:50:03.932Z,11.30
2022-12-12T05:51:04.088Z,11.30
2022-12-12T05:52:04.259Z,11.50
2022-12-12T05:53:04.422Z,11.40
2022-12-12T05:54:04.599Z,11.30
2022-12-12T05:55:04.766Z,11.40
2022-12-12T05:56:04.950Z,10.90
2022-12-12T05:57:05.108Z,10.70
2022-12-12T05:58:05.298Z,11.00
2022-12-12T05:59:05.457Z,10.70
2022-12-12T06:00:05.678Z,11.10
2022-12-12T06:01:05.827Z,10.50
2022-12-12T06:02:05.920Z,10.20
2022-12-12T06:03:06.076Z,10.80
2022-12-12T06:04:06.321Z,10.90
2022-12-12T06:05:06.383Z,11.10
2022-12-12T06:06:06.557Z,11.10
2022-12-12T06:07:06.717Z,10.80
2022-12-12T06:08:06.961Z,10.50
2022-12-12T06:09:07.058Z,10.30
2022-12-12T06:10:07.259Z,11.00
2022-12-12T06:11:07.454Z,11.40
2022-12-12T06:12:07.624Z,11.10
2022-12-12T06:13:07.802Z,11.10
2022-12-12T06:14:07.999Z,10.80
2022-12-12T06:15:08.177Z,11.00
2022-12-12T06:16:08.457Z,11.50
2022-12-12T06:17:08.494Z,11.00
2022-12-12T06:18:08.593Z,11.20
2022-12-12T06:19:08.650Z,11.80
2022-12-12T06:20:08.838Z,10.90
2022-12-12T06:21:09.025Z,11.20
2022-12-12T06:22:09.208Z,11.00
2022-12-12T06:23:09.545Z,10.80
2022-12-12T06:24:09.508Z,10.60
2022-12-12T06:25:09.713Z,10.60
2022-12-12T06:26:09.809Z,10.10
2022-12-12T06:27:09.880Z,10.70
2022-12-12T06:28:10.111Z,10.60
2022-12-12T06:29:10.188Z,10.40
2022-12-12T06:30:10.453Z,10.40
2022-12-12T06:31:12.026Z,9.40
2022-12-12T06:32:10.707Z,9.90
2022-12-12T06:33:10.846Z,9.80
2022-12-12T06:34:10.948Z,9.80
2022-12-12T06:35:11.323Z,10.30
2022-12-12T06:36:11.171Z,9.80
2022-12-12T06:37:17.039Z,9.50
2022-12-12T06:38:12.480Z,9.00
2022-12-12T06:39:11.555Z,9.50
2022-12-12T06:40:11.756Z,9.30
2022-12-12T06:41:11.951Z,9.20
2022-12-12T06:42:12.148Z,9.00
2022-12-12T06:43:12.256Z,9.50
2022-12-12T06:44:12.374Z,9.50
2022-12-12T06:45:12.828Z,9.50
2022-12-12T06:46:12.793Z,9.90
2022-12-12T06:47:12.780Z,10.40
2022-12-12T06:48:12.961Z,10.00
2022-12-12T06:49:13.130Z,10.20
2022-12-12T06:50:13.327Z,9.60
2022-12-12T06:51:13.491Z,9.80
2022-12-12T06:52:13.691Z,9.60
2022-12-12T06:53:13.920Z,10.20
2022-12-12T06:54:13.870Z,9.50
2022-12-12T06:55:14.418Z,10.00
2022-12-12T06:56:14.178Z,9.90
2022-12-12T06:57:14.354Z,10.20
2022-12-12T06:58:14.618Z,10.00
2022-12-12T06:59:14.650Z,10.20
2022-12-12T07:00:14.807Z,10.60
2022-12-12T07:01:15.076Z,10.60
2022-12-12T07:02:15.246Z,10.70
2022-12-12T07:03:15.344Z,10.90
2022-12-12T07:04:15.429Z,11.00
2022-12-12T07:05:15.793Z,11.40
2022-12-12T07:06:15.736Z,10.70
2022-12-12T07:07:15.906Z,11.10
2022-12-12T07:08:16.268Z,11.10
2022-12-12T07:09:16.311Z,11.80
2022-12-12T07:10:21.067Z,11.00
2022-12-12T07:11:17.501Z,11.00
2022-12-12T07:12:16.647Z,11.60
2022-12-12T07:13:16.872Z,11.80
2022-12-12T07:14:16.924Z,11.40
2022-12-12T07:15:17.107Z,11.40
2022-12-12T07:16:17.340Z,11.10
2022-12-12T07:17:17.411Z,11.60
2022-12-12T07:18:17.601Z,11.80
2022-12-12T07:19:17.773Z,11.90
2022-12-12T07:20:17.983Z,12.30
2022-12-12T07:21:18.165Z,11.30
2022-12-12T07:22:18.322Z,11.80
2022-12-12T07:23:18.517Z,11.30
2022-12-12T07:24:18.684Z,12.00
2022-12-12T07:25:18.906Z,12.00
2022-12-12T07:26:19.235Z,11.40
2022-12-12T07:27:21.758Z,11.10
2022-12-12T07:28:19.209Z,10.90
2022-12-12T07:29:19.517Z,11.30
2022-12-12T07:30:19.623Z,11.30
2022-12-12T07:31:19.785Z,11.00
2022-12-12T07:32:19.796Z,11.60
2022-12-12T07:33:20.063Z,10.90
2022-12-12T07:34:20.277Z,11.30
2022-12-12T07:35:20.419Z,11.40
2022-12-12T07:36:20.427Z,11.50
2022-12-12T07:37:20.537Z,11.40
2022-12-12T07:38:20.646Z,11.50
2022-12-12T07:39:21.286Z,11.20
2022-12-12T07:40:21.635Z,11.30
2022-12-12T07:41:21.070Z,10.90
2022-12-12T07:42:21.153Z,10.90
2022-12-12T07:43:21.371Z,11.40
2022-12-12T07:44:21.443Z,11.40
2022-12-12T07:45:22.111Z,10.70
2022-12-12T07:46:21.791Z,10.20
2022-12-12T07:47:21.882Z,10.00
2022-12-12T07:48:22.072Z,10.50
2022-12-12T07:49:22.300Z,10.90
2022-12-12T07:50:22.379Z,10.50
2022-12-12T07:51:22.617Z,10.30
2022-12-12T07:52:22.711Z,10.10
2022-12-12T07:53:22.847Z,10.40
2022-12-12T07:54:22.968Z,10.60
2022-12-12T07:55:23.049Z,10.20
2022-12-12T07:56:23.235Z,10.60
2022-12-12T07:57:23.589Z,10.30
2022-12-12T07:58:23.832Z,10.90
2022-12-12T07:59:23.689Z,10.50
2022-12-12T08:00:23.858Z,10.40
2022-12-12T08:01:24.288Z,10.40
2022-12-12T08:02:24.199Z,10.10
2022-12-12T08:03:24.685Z,10.10
2022-12-12T08:04:24.571Z,9.30
2022-12-12T08:05:24.644Z,10.20
2022-12-12T08:06:24.803Z,9.80
2022-12-12T08:07:25.510Z,10.10
2022-12-12T08:08:25.182Z,11.30
2022-12-12T08:09:26.083Z,11.20
2022-12-12T08:10:25.372Z,10.30
2022-12-12T08:11:25.563Z,9.10
2022-12-12T08:12:25.754Z,9.90
2022-12-12T08:13:25.909Z,9.20
2022-12-12T08:14:26.057Z,9.10
2022-12-12T08:15:26.149Z,9.10
2022-12-12T08:16:26.263Z,9.10
2022-12-12T08:17:26.349Z,9.90
2022-12-12T08:18:26.548Z,11.00
2022-12-12T08:19:26.839Z,10.60
2022-12-12T08:20:26.946Z,11.00
2022-12-12T08:21:27.241Z,10.10
2022-12-12T08:22:27.219Z,9.70
2022-12-12T08:23:27.430Z,9.60
2022-12-12T08:24:27.663Z,9.70
2022-12-12T08:25:27.827Z,9.80
2022-12-12T08:26:27.907Z,9.90
2022-12-12T08:27:28.077Z,9.90
2022-12-12T08:28:28.311Z,9.80
2022-12-12T08:29:28.445Z,9.70
2022-12-12T08:30:28.501Z,9.60
2022-12-12T08:31:28.714Z,9.70
2022-12-12T08:32:28.827Z,9.90
2022-12-12T08:33:29.073Z,10.10
2022-12-12T08:34:29.135Z,9.60
2022-12-12T08:35:29.312Z,10.10
2022-12-12T08:36:29.484Z,9.90
2022-12-12T08:37:29.724Z,9.30
2022-12-12T08:38:29.856Z,8.80
2022-12-12T08:39:29.938Z,9.40
2022-12-12T08:40:30.101Z,9.20
2022-12-12T08:41:30.307Z,8.60
2022-12-12T08:42:30.461Z,8.50
2022-12-12T08:43:30.581Z,8.90
2022-12-12T08:44:30.659Z,8.60
2022-12-12T08:45:30.751Z,8.50
2022-12-12T08:46:30.983Z,8.40
2022-12-12T08:47:31.040Z,8.50
2022-12-12T08:48:31.269Z,8.70
2022-12-12T08:49:31.333Z,8.50
2022-12-12T08:50:31.496Z,9.00
2022-12-12T08:51:31.728Z,9.10
2022-12-12T08:52:31.805Z,9.50
2022-12-12T08:53:31.998Z,9.50
2022-12-12T08:54:32.120Z,9.20
2022-12-12T08:55:32.213Z,9.00
2022-12-12T08:56:32.316Z,9.20
2022-12-12T08:57:32.397Z,9.30
2022-12-12T08:58:32.629Z,8.50
2022-12-12T08:59:32.684Z,9.40
2022-12-12T09:00:32.900Z,8.70
2022-12-12T09:01:33.048Z,8.40
2022-12-12T09:02:33.237Z,9.70
2022-12-12T09:03:33.274Z,8.70
2022-12-12T09:04:33.446Z,8.40
2022-12-12T09:05:33.602Z,7.90
2022-12-12T09:06:33.770Z,7.90
2022-12-12T09:07:33.932Z,8.40
2022-12-12T09:08:34.196Z,7.70
2022-12-12T09:09:34.316Z,7.30
2022-12-12T09:10:34.348Z,6.60
2022-12-12T09:11:34.518Z,8.10
2022-12-12T09:12:41.239Z,8.70
2022-12-12T09:13:35.889Z,8.80
2022-12-12T09:14:34.942Z,8.00
2022-12-12T09:15:35.105Z,7.60
2022-12-12T09:16:35.331Z,7.10
2022-12-12T09:17:35.513Z,7.40
2022-12-12T09:18:35.716Z,7.40
2022-12-12T09:19:35.819Z,7.60
2022-12-12T09:20:35.887Z,7.40
2022-12-12T09:21:36.078Z,7.20
2022-12-12T09:22:36.259Z,7.10
2022-12-12T09:23:36.446Z,7.50
2022-12-12T09:24:36.618Z,7.50
2022-12-12T09:25:41.284Z,7.60
2022-12-12T09:26:37.907Z,6.90
2022-12-12T09:27:37.097Z,7.70
2022-12-12T09:28:37.185Z,8.00
2022-12-12T09:29:37.301Z,8.20
2022-12-12T09:30:37.371Z,7.70
2022-12-12T09:31:37.624Z,7.60
2022-12-12T09:32:37.840Z,7.40
2022-12-12T09:33:37.885Z,8.80
2022-12-12T09:34:38.063Z,8.70
2022-12-12T09:35:38.265Z,6.70
2022-12-12T09:36:38.311Z,6.90
2022-12-12T09:37:38.583Z,6.80
2022-12-12T09:38:38.672Z,7.00
2022-12-12T09:39:38.831Z,7.10
2022-12-12T09:40:38.971Z,6.60
2022-12-12T09:41:39.131Z,6.50
2022-12-12T09:42:39.275Z,6.70
2022-12-12T09:43:39.440Z,6.20
2022-12-12T09:44:39.583Z,6.00
2022-12-12T09:45:39.807Z,5.90
2022-12-12T09:46:39.897Z,5.90
2022-12-12T09:47:40.091Z,6.10
2022-12-12T09:48:40.203Z,6.60
2022-12-12T09:49:43.695Z,7.60
2022-12-12T09:50:40.421Z,6.20
2022-12-12T09:51:40.580Z,5.80
2022-12-12T09:52:40.719Z,5.40
2022-12-12T09:53:40.920Z,5.30
2022-12-12T09:54:40.955Z,5.20
2022-12-12T09:55:41.175Z,6.10
2022-12-12T09:56:41.157Z,6.40
2022-12-12T09:57:41.269Z,6.50
2022-12-12T09:58:47.295Z,5.90
2022-12-12T09:59:42.563Z,5.70
2022-12-12T10:00:41.713Z,5.40
2022-12-12T10:01:41.903Z,5.40
2022-12-12T10:02:41.903Z,5.00
2022-12-12T10:03:42.024Z,7.30
2022-12-12T10:04:50.995Z,6.70
2022-12-12T10:05:42.224Z,6.00
2022-12-12T10:06:42.309Z,5.50
2022-12-12T10:07:42.421Z,5.30
2022-12-12T10:08:42.501Z,6.20
2022-12-12T10:09:42.581Z,6.80
2022-12-12T10:10:42.673Z,5.50
2022-12-12T10:11:42.733Z,5.70
2022-12-12T10:12:42.793Z,5.50
2022-12-12T10:13:42.884Z,5.10
2022-12-12T10:14:42.930Z,4.80
2022-12-12T10:15:43.091Z,4.80
2022-12-12T10:16:43.262Z,4.80
2022-12-12T10:17:43.306Z,5.20
2022-12-12T10:18:43.481Z,5.00
2022-12-12T10:19:43.510Z,5.00
2022-12-12T10:20:43.635Z,4.50
2022-12-12T10:21:43.760Z,4.60
2022-12-12T10:22:43.880Z,4.60
2022-12-12T10:23:44.030Z,4.70
2022-12-12T10:24:44.142Z,4.70
2022-12-12T10:25:44.269Z,4.70
2022-12-12T10:26:44.378Z,4.60
2022-12-12T10:27:44.497Z,5.00
2022-12-12T10:28:44.616Z,4.60
2022-12-12T10:29:44.744Z,4.80
2022-12-12T10:30:44.858Z,4.60
2022-12-12T10:31:45.026Z,4.70
2022-12-12T10:32:45.053Z,4.60
2022-12-12T10:33:45.188Z,4.30
2022-12-12T10:34:45.288Z,4.50
2022-12-12T10:35:45.387Z,4.50
2022-12-12T10:36:45.474Z,4.30
2022-12-12T10:37:45.579Z,4.60
2022-12-12T10:38:45.673Z,4.60
2022-12-12T10:39:45.757Z,4.40
2022-12-12T10:40:45.833Z,4.60
2022-12-12T10:41:45.913Z,4.40
2022-12-12T10:42:45.991Z,4.60
2022-12-12T10:43:46.081Z,4.40
2022-12-12T10:44:47.498Z,4.40
2022-12-12T10:45:46.229Z,4.50
2022-12-12T10:46:46.785Z,4.10
2022-12-12T10:47:46.375Z,4.50
2022-12-12T10:48:46.455Z,4.10
2022-12-12T10:49:46.523Z,4.70
2022-12-12T10:50:46.586Z,4.60
2022-12-12T10:51:46.647Z,4.50
2022-12-12T10:52:46.713Z,4.50
2022-12-12T10:53:46.788Z,4.20
2022-12-12T10:54:46.843Z,4.40
2022-12-12T10:55:46.922Z,4.50
2022-12-12T10:56:46.976Z,4.50
2022-12-12T10:57:47.052Z,4.40
2022-12-12T10:58:47.116Z,4.80
2022-12-12T10:59:47.213Z,5.90
2022-12-12T11:00:47.318Z,5.50
2022-12-12T11:02:09.625Z,8.70
2022-12-12T11:02:48.506Z,5.40
2022-12-12T11:03:47.491Z,5.10
2022-12-12T11:04:47.551Z,7.20
2022-12-12T11:05:47.619Z,7.40
2022-12-12T11:06:47.690Z,8.60
2022-12-12T11:07:47.837Z,7.30
2022-12-12T11:08:47.818Z,5.50
2022-12-12T11:09:47.880Z,4.30
2022-12-12T11:10:47.951Z,4.80
2022-12-12T11:11:48.027Z,4.70
2022-12-12T11:12:48.197Z,4.40
2022-12-12T11:13:48.183Z,4.60
2022-12-12T11:14:48.256Z,4.10
2022-12-12T11:15:48.350Z,4.20
2022-12-12T11:16:48.507Z,4.30
2022-12-12T11:17:48.464Z,4.60
2022-12-12T11:18:48.563Z,4.30
2022-12-12T11:19:48.626Z,4.40
2022-12-12T11:20:48.641Z,6.30
2022-12-12T11:21:48.708Z,5.90
2022-12-12T11:22:48.780Z,5.20
2022-12-12T11:23:48.858Z,5.10
2022-12-12T11:24:48.911Z,5.10
2022-12-12T11:25:48.967Z,4.80
2022-12-12T11:26:49.053Z,4.80
2022-12-12T11:27:49.128Z,4.40
2022-12-12T11:28:49.218Z,6.00
2022-12-12T11:29:49.385Z,9.90
2022-12-12T11:30:49.366Z,6.10
2022-12-12T11:31:49.472Z,5.80
2022-12-12T11:32:49.548Z,5.10
2022-12-12T11:33:49.626Z,5.50
2022-12-12T11:34:49.779Z,6.30
2022-12-12T11:35:49.742Z,5.50
2022-12-12T11:36:49.820Z,6.10
2022-12-12T11:37:49.894Z,5.20
2022-12-12T11:38:49.999Z,5.20
2022-12-12T11:39:50.061Z,7.20
2022-12-12T11:40:50.148Z,5.70
2022-12-12T11:41:50.223Z,5.40
2022-12-12T11:42:50.299Z,5.20
2022-12-12T11:43:50.388Z,4.50
2022-12-12T11:44:50.475Z,4.80
2022-12-12T11:45:50.590Z,5.40
2022-12-12T11:46:50.654Z,4.90
2022-12-12T11:47:50.741Z,5.60
2022-12-12T11:48:50.842Z,5.80
2022-12-12T11:49:50.981Z,5.20
2022-12-12T11:50:51.035Z,5.80
2022-12-12T11:51:51.136Z,5.40
2022-12-12T11:52:51.222Z,5.70
2022-12-12T11:53:51.314Z,5.60
2022-12-12T11:54:51.396Z,5.60
2022-12-12T11:55:51.475Z,5.30
2022-12-12T11:56:51.556Z,5.80
2022-12-12T11:57:51.633Z,6.10
2022-12-12T11:58:51.742Z,6.10
2022-12-12T11:59:51.825Z,5.90
2022-12-12T12:00:51.935Z,6.50
2022-12-12T12:01:52.023Z,6.40
2022-12-12T12:02:52.163Z,6.30
2022-12-12T12:03:52.240Z,6.70
2022-12-12T12:04:53.482Z,6.80
2022-12-12T12:05:52.500Z,6.70
2022-12-12T12:06:52.658Z,6.80
2022-12-12T12:07:52.840Z,8.30
2022-12-12T12:08:52.890Z,7.40
2022-12-12T12:09:53.053Z,7.80
2022-12-12T12:10:53.212Z,7.70
2022-12-12T12:11:53.369Z,8.00
2022-12-12T12:12:53.557Z,7.60
2022-12-12T12:13:53.626Z,7.70
2022-12-12T12:14:53.712Z,8.30
2022-12-12T12:15:53.797Z,8.00
2022-12-12T12:16:53.912Z,8.30
2022-12-12T12:17:53.997Z,8.30
2022-12-12T12:18:54.101Z,8.00
2022-12-12T12:19:54.187Z,8.60
2022-12-12T12:20:54.306Z,8.30
2022-12-12T12:21:54.405Z,8.00
2022-12-12T12:22:54.531Z,7.90
2022-12-12T12:23:54.650Z,8.10
2022-12-12T12:24:54.769Z,8.00
2022-12-12T12:25:54.887Z,7.00
2022-12-12T12:26:55.024Z,7.30
2022-12-12T12:27:55.143Z,6.70
2022-12-12T12:28:55.287Z,7.80
2022-12-12T12:29:55.426Z,7.50
2022-12-12T12:30:55.610Z,7.30
2022-12-12T12:31:55.728Z,6.60
2022-12-12T12:32:55.918Z,8.50
2022-12-12T12:33:55.967Z,9.20
2022-12-12T12:34:56.115Z,19.30
2022-12-12T12:35:56.250Z,21.60
2022-12-12T12:36:56.381Z,15.60
2022-12-12T12:37:56.499Z,10.90
2022-12-12T12:38:56.659Z,7.40
2022-12-12T12:39:56.771Z,7.10
2022-12-12T12:40:56.909Z,6.60
2022-12-12T12:41:57.031Z,7.00
2022-12-12T12:42:57.157Z,6.60
2022-12-12T12:43:57.284Z,6.30
2022-12-12T12:44:57.417Z,6.50
2022-12-12T12:45:57.594Z,6.00
2022-12-12T12:46:57.710Z,6.40
2022-12-12T12:47:57.833Z,6.60
2022-12-12T12:48:57.958Z,8.30
2022-12-12T12:49:58.066Z,7.80
2022-12-12T12:50:58.193Z,7.30
2022-12-12T12:51:58.309Z,6.30
2022-12-12T12:52:58.435Z,6.60
2022-12-12T12:53:58.569Z,6.50
2022-12-12T12:54:58.704Z,7.70
2022-12-12T12:55:58.819Z,7.50
2022-12-12T12:56:58.949Z,6.80
2022-12-12T12:57:59.066Z,6.70
2022-12-12T12:58:59.212Z,6.00
2022-12-12T12:59:59.352Z,6.50
2022-12-12T13:00:59.528Z,7.10
2022-12-12T13:01:59.647Z,6.90
2022-12-12T13:02:59.841Z,7.30
2022-12-12T13:03:59.972Z,6.90